Terminal Aerodrome Forecast
Issued by NWS

Home | Current Version | Previous Version | Text Only | Print | Product List | Glossary On
Versions: 1 2 3 4 5 6 7 8 9 10 11 12 13 14 15 16 17 18 19
000
FTUS43 KDLH 161500 AAA
TAFHIB
TAF AMD
KHIB 161513Z 1615/1712 18004KT P6SM VCSH OVC070
     FM161900 25008KT P6SM VCSH BKN060
     FM170100 32004KT P6SM SKC=

USA.gov is the U.S. government's official web portal to all federal, state and local government web resources and services.